createdAt,value
2023-04-28T00:00:25.576Z,7.81
2023-04-28T00:03:11.067Z,7.79
2023-04-28T00:05:56.214Z,7.82
2023-04-28T00:08:41.664Z,7.83
2023-04-28T00:11:27.117Z,7.86
2023-04-28T00:14:13.158Z,7.85
2023-04-28T00:16:59.258Z,7.85
2023-04-28T00:19:45.129Z,7.79
2023-04-28T00:22:31.216Z,7.76
2023-04-28T00:25:16.573Z,7.69
2023-04-28T00:28:02.166Z,7.60
2023-04-28T00:30:47.644Z,7.60
2023-04-28T00:33:32.861Z,7.61
2023-04-28T00:36:18.177Z,7.57
2023-04-28T00:39:03.598Z,7.51
2023-04-28T00:41:48.898Z,7.49
2023-04-28T00:44:35.384Z,7.46
2023-04-28T00:47:20.893Z,7.39
2023-04-28T00:50:06.534Z,7.31
2023-04-28T00:52:52.354Z,7.29
2023-04-28T00:55:38.486Z,7.28
2023-04-28T00:58:24.084Z,7.25
2023-04-28T01:01:10.147Z,7.22
2023-04-28T01:03:55.994Z,7.23
2023-04-28T01:06:43.873Z,7.25
2023-04-28T01:09:29.019Z,7.26
2023-04-28T01:12:14.891Z,7.24
2023-04-28T01:15:02.648Z,7.20
2023-04-28T01:17:48.795Z,7.23
2023-04-28T01:20:33.876Z,7.25
2023-04-28T01:23:19.398Z,7.21
2023-04-28T01:26:04.563Z,7.18
2023-04-28T01:28:49.789Z,7.18
2023-04-28T01:31:35.257Z,7.22
2023-04-28T01:34:20.510Z,7.19
2023-04-28T01:37:06.030Z,7.18
2023-04-28T01:39:51.558Z,7.15
2023-04-28T01:42:37.771Z,7.15
2023-04-28T01:45:22.877Z,7.22
2023-04-28T01:48:08.312Z,7.22
2023-04-28T01:50:53.633Z,7.27
2023-04-28T01:53:38.668Z,7.29
2023-04-28T01:56:24.242Z,7.28
2023-04-28T01:59:11.305Z,7.26
2023-04-28T02:01:56.799Z,7.24
2023-04-28T02:04:42.266Z,7.19
2023-04-28T02:07:27.550Z,7.14
2023-04-28T02:10:14.315Z,7.09
2023-04-28T02:12:59.703Z,7.04
2023-04-28T02:15:44.961Z,6.99
2023-04-28T02:18:31.400Z,6.93
2023-04-28T02:21:18.378Z,6.90
2023-04-28T02:24:04.134Z,6.87
2023-04-28T02:26:50.093Z,6.81
2023-04-28T02:29:36.308Z,6.76
2023-04-28T02:32:21.948Z,6.71
2023-04-28T02:35:09.853Z,6.68
2023-04-28T02:37:55.353Z,6.71
2023-04-28T02:40:40.606Z,6.71
2023-04-28T02:43:28.121Z,6.69
2023-04-28T02:46:13.471Z,6.64
2023-04-28T02:48:58.804Z,6.63
2023-04-28T02:51:44.118Z,6.60
2023-04-28T02:54:29.560Z,6.58
2023-04-28T02:57:16.177Z,6.57
2023-04-28T03:00:01.604Z,6.55
2023-04-28T03:02:52.842Z,6.58
2023-04-28T03:05:38.046Z,6.60
2023-04-28T03:08:23.881Z,6.65
2023-04-28T03:11:09.078Z,6.69
2023-04-28T03:13:54.222Z,6.73
2023-04-28T03:16:40.295Z,6.68
2023-04-28T03:19:26.473Z,6.58
2023-04-28T03:22:11.823Z,6.52
2023-04-28T03:24:57.026Z,6.52
2023-04-28T03:27:43.388Z,6.47
2023-04-28T03:30:29.033Z,6.46
2023-04-28T03:33:16.082Z,6.48
2023-04-28T03:36:01.599Z,6.53
2023-04-28T03:38:47.036Z,6.58
2023-04-28T03:41:32.641Z,6.63
2023-04-28T03:44:40.166Z,6.68
2023-04-28T03:47:26.175Z,6.73
2023-04-28T03:50:11.328Z,6.71
2023-04-28T03:52:56.662Z,6.71
2023-04-28T03:55:42.749Z,6.68
2023-04-28T03:58:28.822Z,6.71
2023-04-28T04:01:13.889Z,6.69
2023-04-28T04:03:59.623Z,6.69
2023-04-28T04:06:45.227Z,6.71
2023-04-28T04:09:31.465Z,6.75
2023-04-28T04:12:17.767Z,6.76
2023-04-28T04:15:03.560Z,6.76
2023-04-28T04:17:50.488Z,6.79
2023-04-28T04:20:35.976Z,6.86
2023-04-28T04:23:23.498Z,6.93
2023-04-28T04:26:09.329Z,6.99
2023-04-28T04:28:55.357Z,7.03
2023-04-28T04:31:41.039Z,7.05
2023-04-28T04:34:26.816Z,7.01
2023-04-28T04:37:12.747Z,6.96
2023-04-28T04:40:10.925Z,6.97
2023-04-28T04:43:03.386Z,6.97
2023-04-28T04:45:55.961Z,7.01
2023-04-28T04:48:41.092Z,6.95
2023-04-28T04:51:26.431Z,6.93
2023-04-28T04:54:11.748Z,6.97
2023-04-28T04:56:58.694Z,6.96
2023-04-28T05:00:02.562Z,7.00
2023-04-28T05:02:49.354Z,7.04
2023-04-28T05:05:36.526Z,7.08
2023-04-28T05:08:36.951Z,7.19
2023-04-28T05:11:22.353Z,7.33
2023-04-28T05:14:07.923Z,7.43
2023-04-28T05:16:53.217Z,7.53
2023-04-28T05:19:44.869Z,7.66
2023-04-28T05:22:31.263Z,7.74
2023-04-28T05:25:17.028Z,7.84
2023-04-28T05:28:07.270Z,8.03
2023-04-28T05:30:52.214Z,8.22
2023-04-28T05:33:38.167Z,8.31
2023-04-28T05:36:23.582Z,8.30
2023-04-28T05:39:08.939Z,8.42
2023-04-28T05:41:54.418Z,8.46
2023-04-28T05:44:41.810Z,8.60
2023-04-28T05:47:29.430Z,8.69
2023-04-28T05:50:14.560Z,8.88
2023-04-28T05:52:59.791Z,8.93
2023-04-28T05:55:44.954Z,9.00
2023-04-28T05:58:31.610Z,9.12
2023-04-28T06:01:17.574Z,9.27
2023-04-28T06:04:03.253Z,9.28
2023-04-28T06:06:49.268Z,9.24
2023-04-28T06:09:34.805Z,9.23
2023-04-28T06:12:20.057Z,9.21
2023-04-28T06:15:06.466Z,9.34
2023-04-28T06:17:52.394Z,9.36
2023-04-28T06:20:37.975Z,9.31
2023-04-28T06:23:23.395Z,9.54
2023-04-28T06:26:09.869Z,9.72
2023-04-28T06:28:57.737Z,9.83
2023-04-28T06:31:43.262Z,9.77
2023-04-28T06:34:30.872Z,9.77
2023-04-28T06:37:16.858Z,9.75
2023-04-28T06:40:02.310Z,9.88
2023-04-28T06:42:48.349Z,9.95
2023-04-28T06:45:39.583Z,10.18
2023-04-28T06:48:25.962Z,10.26
2023-04-28T06:51:11.478Z,10.35
2023-04-28T06:53:57.132Z,10.34
2023-04-28T06:56:42.234Z,10.36
2023-04-28T06:59:27.680Z,10.26
2023-04-28T07:02:13.164Z,10.40
2023-04-28T07:04:58.354Z,10.59
2023-04-28T07:07:43.501Z,10.82
2023-04-28T07:10:28.865Z,11.10
2023-04-28T07:13:13.988Z,11.37
2023-04-28T07:15:59.529Z,11.54
2023-04-28T07:18:45.079Z,11.62
2023-04-28T07:21:30.464Z,11.32
2023-04-28T07:24:16.191Z,11.25
2023-04-28T07:27:01.855Z,11.14
2023-04-28T07:29:47.353Z,11.25
2023-04-28T07:32:32.938Z,11.36
2023-04-28T07:35:18.239Z,11.50
2023-04-28T07:38:03.929Z,11.77
2023-04-28T07:40:49.250Z,11.68
2023-04-28T07:43:34.529Z,11.92
2023-04-28T07:46:19.647Z,12.00
2023-04-28T07:49:04.923Z,12.22
2023-04-28T07:51:52.120Z,12.21
2023-04-28T07:54:37.656Z,12.39
2023-04-28T07:57:23.051Z,12.14
2023-04-28T08:00:09.659Z,12.13
2023-04-28T08:02:58.798Z,11.96
2023-04-28T08:05:45.168Z,12.16
2023-04-28T08:08:30.833Z,12.24
2023-04-28T08:11:16.257Z,12.44
2023-04-28T08:14:02.998Z,12.58
2023-04-28T08:16:48.439Z,12.43
2023-04-28T08:19:33.585Z,12.67
2023-04-28T08:22:19.208Z,12.85
2023-04-28T08:25:04.741Z,12.96
2023-04-28T08:27:50.146Z,12.56
2023-04-28T08:30:35.842Z,12.58
2023-04-28T08:33:21.033Z,12.37
2023-04-28T08:36:07.005Z,12.39
2023-04-28T08:38:52.747Z,12.43
2023-04-28T08:41:42.080Z,12.62
2023-04-28T08:44:27.808Z,12.67
2023-04-28T08:47:14.500Z,12.59
2023-04-28T08:50:05.813Z,12.53
2023-04-28T08:52:56.778Z,12.84
2023-04-28T08:55:43.506Z,12.91
2023-04-28T08:58:28.767Z,13.09
2023-04-28T09:01:14.406Z,13.17
2023-04-28T09:04:03.908Z,13.47
2023-04-28T09:06:49.875Z,13.48
2023-04-28T09:09:37.174Z,13.57
2023-04-28T09:12:36.530Z,13.76
2023-04-28T09:15:42.198Z,13.97
2023-04-28T09:18:27.363Z,13.56
2023-04-28T09:21:13.290Z,13.88
2023-04-28T09:23:58.420Z,13.89
2023-04-28T09:26:50.668Z,13.95
2023-04-28T09:29:36.674Z,13.82
2023-04-28T09:32:23.499Z,14.05
2023-04-28T09:35:09.446Z,14.26
2023-04-28T09:37:58.998Z,14.56
2023-04-28T09:40:51.792Z,14.55
2023-04-28T09:43:37.013Z,14.76
2023-04-28T09:46:29.650Z,14.45
2023-04-28T09:49:15.348Z,14.71
2023-04-28T09:52:13.830Z,14.87
2023-04-28T09:55:02.089Z,14.88
2023-04-28T09:57:50.036Z,14.94
2023-04-28T10:00:36.310Z,15.22
2023-04-28T10:03:25.554Z,15.08
2023-04-28T10:06:12.018Z,15.40
2023-04-28T10:09:00.198Z,15.60
2023-04-28T10:11:46.084Z,15.58
2023-04-28T10:14:32.059Z,15.30
2023-04-28T10:17:17.744Z,15.07
2023-04-28T10:20:03.443Z,15.27
2023-04-28T10:23:17.319Z,15.65
2023-04-28T10:26:10.267Z,15.87
2023-04-28T10:28:55.821Z,15.94
2023-04-28T10:32:17.107Z,15.58
2023-04-28T10:35:28.498Z,15.58
2023-04-28T10:38:14.948Z,15.42
2023-04-28T10:41:03.286Z,15.45
2023-04-28T10:43:50.371Z,15.83
2023-04-28T10:47:07.467Z,15.83
2023-04-28T10:49:58.755Z,16.03
2023-04-28T10:52:44.321Z,16.11
2023-04-28T10:55:37.408Z,16.13
2023-04-28T10:58:29.944Z,16.09
2023-04-28T11:01:18.977Z,16.36
2023-04-28T11:04:14.135Z,16.59
2023-04-28T11:07:11.451Z,16.61
2023-04-28T11:09:57.952Z,16.88
2023-04-28T11:13:21.276Z,16.93
2023-04-28T11:16:06.986Z,17.21
2023-04-28T11:19:04.694Z,17.38
2023-04-28T11:21:51.879Z,17.09
2023-04-28T11:24:37.786Z,17.11
2023-04-28T11:27:27.730Z,17.26
2023-04-28T11:30:22.688Z,17.26
2023-04-28T11:33:09.491Z,17.31
2023-04-28T11:35:54.576Z,17.26
2023-04-28T11:38:44.531Z,17.23
2023-04-28T11:41:30.016Z,17.35
2023-04-28T11:44:18.684Z,17.31
2023-04-28T11:47:06.395Z,17.35
2023-04-28T11:49:52.008Z,17.29
2023-04-28T11:52:47.712Z,17.42
2023-04-28T11:55:33.245Z,17.63
2023-04-28T11:58:23.830Z,17.75
2023-04-28T12:01:17.051Z,17.69
2023-04-28T12:04:02.460Z,17.75
2023-04-28T12:06:47.717Z,17.63
2023-04-28T12:09:35.363Z,17.52
2023-04-28T12:12:40.550Z,17.83
2023-04-28T12:15:41.442Z,17.71
2023-04-28T12:18:27.555Z,17.62
2023-04-28T12:21:21.818Z,17.43
2023-04-28T12:24:19.937Z,17.37
2023-04-28T12:27:21.718Z,17.47
2023-04-28T12:30:08.202Z,17.39
2023-04-28T12:32:54.360Z,17.79
2023-04-28T12:35:39.813Z,17.88
2023-04-28T12:38:25.720Z,18.02
2023-04-28T12:41:11.729Z,18.00
2023-04-28T12:43:57.469Z,18.07
2023-04-28T12:46:43.026Z,18.09
2023-04-28T12:49:28.468Z,17.84
2023-04-28T12:52:13.975Z,18.06
2023-04-28T12:54:59.985Z,17.88
2023-04-28T12:57:45.158Z,17.72
2023-04-28T13:00:31.133Z,17.81
2023-04-28T13:03:17.305Z,17.80
2023-04-28T13:06:04.197Z,17.93
2023-04-28T13:08:49.388Z,18.04
2023-04-28T13:11:35.137Z,18.11
2023-04-28T13:14:20.962Z,18.26
2023-04-28T13:17:06.579Z,18.26
2023-04-28T13:19:51.792Z,18.34
2023-04-28T13:22:37.098Z,18.33
2023-04-28T13:25:22.612Z,18.39
2023-04-28T13:28:07.905Z,18.31
2023-04-28T13:30:53.226Z,18.31
2023-04-28T13:33:39.213Z,18.29
2023-04-28T13:36:25.571Z,18.24
2023-04-28T13:39:11.750Z,18.29
2023-04-28T13:41:57.120Z,18.27
2023-04-28T13:44:42.429Z,18.30
2023-04-28T13:47:28.257Z,18.24
2023-04-28T13:50:13.782Z,18.12
2023-04-28T13:52:59.421Z,17.98
2023-04-28T13:55:45.404Z,17.78
2023-04-28T13:58:30.706Z,17.69
2023-04-28T14:01:16.106Z,17.62
2023-04-28T14:04:01.488Z,17.57
2023-04-28T14:06:47.097Z,17.48
2023-04-28T14:09:32.744Z,17.36
2023-04-28T14:12:18.272Z,17.32
2023-04-28T14:15:05.675Z,17.30
2023-04-28T14:17:50.995Z,17.20
2023-04-28T14:20:36.264Z,17.09
2023-04-28T14:23:22.875Z,17.04
2023-04-28T14:26:08.046Z,16.82
2023-04-28T14:28:54.060Z,16.73
2023-04-28T14:31:39.460Z,16.67
2023-04-28T14:34:25.120Z,16.63
2023-04-28T14:37:10.437Z,16.60
2023-04-28T14:39:55.839Z,16.52
2023-04-28T14:42:41.073Z,16.40
2023-04-28T14:45:26.363Z,16.31
2023-04-28T14:48:13.257Z,16.22
2023-04-28T14:50:58.607Z,16.19
2023-04-28T14:53:46.958Z,16.16
2023-04-28T14:56:33.906Z,16.15
2023-04-28T14:59:19.550Z,16.18
2023-04-28T15:02:05.141Z,16.22
2023-04-28T15:04:51.462Z,16.27
2023-04-28T15:07:36.976Z,16.34
2023-04-28T15:10:22.232Z,16.33
2023-04-28T15:13:07.647Z,16.30
2023-04-28T15:15:53.382Z,16.31
2023-04-28T15:18:39.421Z,16.40
2023-04-28T15:21:24.837Z,16.38
2023-04-28T15:24:13.056Z,16.34
2023-04-28T15:26:58.673Z,16.30
2023-04-28T15:29:43.859Z,16.25
2023-04-28T15:32:31.567Z,16.23
2023-04-28T15:35:17.121Z,16.18
2023-04-28T15:38:02.532Z,16.11
2023-04-28T15:40:47.820Z,16.02
2023-04-28T15:43:32.984Z,16.03
2023-04-28T15:46:18.188Z,15.97
2023-04-28T15:49:05.910Z,15.96
2023-04-28T15:51:52.112Z,15.98
2023-04-28T15:54:39.491Z,15.90
2023-04-28T15:57:24.751Z,15.90
2023-04-28T16:00:11.407Z,15.85
2023-04-28T16:02:56.990Z,15.83
2023-04-28T16:05:41.985Z,15.82
2023-04-28T16:08:29.057Z,15.78
2023-04-28T16:11:17.775Z,15.72
2023-04-28T16:14:04.089Z,15.60
2023-04-28T16:16:50.570Z,15.52
2023-04-28T16:19:39.215Z,15.50
2023-04-28T16:22:25.265Z,15.54
2023-04-28T16:25:11.627Z,15.61
2023-04-28T16:27:57.075Z,15.64
2023-04-28T16:30:43.358Z,15.65
2023-04-28T16:33:28.636Z,15.58
2023-04-28T16:36:13.841Z,15.49
2023-04-28T16:38:59.288Z,15.44
2023-04-28T16:41:44.616Z,15.30
2023-04-28T16:44:30.573Z,15.23
2023-04-28T16:47:16.035Z,15.10
2023-04-28T16:50:01.239Z,15.01
2023-04-28T16:52:46.352Z,14.90
2023-04-28T16:55:31.700Z,14.83
2023-04-28T16:58:17.036Z,14.83
2023-04-28T17:01:02.483Z,14.81
2023-04-28T17:03:50.598Z,14.79
2023-04-28T17:06:35.974Z,14.78
2023-04-28T17:09:22.301Z,14.80
2023-04-28T17:12:07.660Z,14.82
2023-04-28T17:14:53.127Z,14.80
2023-04-28T17:17:38.643Z,14.77
2023-04-28T17:20:24.454Z,14.71
2023-04-28T17:23:10.238Z,14.68
2023-04-28T17:25:55.833Z,14.66
2023-04-28T17:28:41.443Z,14.64
2023-04-28T17:31:29.795Z,14.61
2023-04-28T17:34:15.661Z,14.54
2023-04-28T17:37:00.821Z,14.50
2023-04-28T17:39:49.611Z,14.51
2023-04-28T17:42:34.958Z,14.51
2023-04-28T17:45:20.213Z,14.48
2023-04-28T17:48:06.027Z,14.44
2023-04-28T17:50:52.433Z,14.40
2023-04-28T17:53:39.123Z,14.33
2023-04-28T17:56:24.538Z,14.29
2023-04-28T17:59:09.696Z,14.24
2023-04-28T18:01:56.326Z,14.20
2023-04-28T18:04:41.900Z,14.19
2023-04-28T18:07:27.545Z,14.20
2023-04-28T18:10:13.095Z,14.16
2023-04-28T18:12:59.225Z,14.11
2023-04-28T18:15:46.236Z,14.07
2023-04-28T18:18:34.794Z,14.04
2023-04-28T18:21:20.590Z,14.01
2023-04-28T18:24:06.335Z,14.00
2023-04-28T18:26:51.464Z,13.98
2023-04-28T18:29:36.746Z,13.95
2023-04-28T18:32:22.398Z,13.93
2023-04-28T18:35:07.925Z,13.90
2023-04-28T18:37:53.429Z,13.91
2023-04-28T18:40:39.757Z,13.90
2023-04-28T18:43:25.869Z,13.91
2023-04-28T18:46:11.167Z,13.89
2023-04-28T18:48:56.449Z,13.87
2023-04-28T18:51:42.185Z,13.82
2023-04-28T18:54:28.897Z,13.81
2023-04-28T18:57:16.806Z,13.82
2023-04-28T19:00:02.174Z,13.81
2023-04-28T19:02:47.557Z,13.82
2023-04-28T19:05:33.956Z,13.80
2023-04-28T19:08:19.557Z,13.80
2023-04-28T19:11:06.760Z,13.80
2023-04-28T19:13:52.354Z,13.76
2023-04-28T19:16:40.629Z,13.71
2023-04-28T19:19:26.031Z,13.63
2023-04-28T19:22:37.430Z,13.60
2023-04-28T19:25:23.228Z,13.59
2023-04-28T19:28:10.887Z,13.60
2023-04-28T19:30:57.640Z,13.58
2023-04-28T19:33:43.145Z,13.58
2023-04-28T19:36:28.645Z,13.59
2023-04-28T19:39:14.056Z,13.56
2023-04-28T19:41:59.854Z,13.57
2023-04-28T19:44:47.444Z,13.56
2023-04-28T19:47:36.819Z,13.58
2023-04-28T19:50:21.952Z,13.58
2023-04-28T19:53:08.001Z,13.54
2023-04-28T19:55:53.343Z,13.52
2023-04-28T19:58:39.788Z,13.52
2023-04-28T20:01:25.171Z,13.49
2023-04-28T20:04:13.738Z,13.45
2023-04-28T20:06:59.514Z,13.47
2023-04-28T20:09:44.891Z,13.47
2023-04-28T20:12:30.371Z,13.48
2023-04-28T20:15:18.000Z,13.49
2023-04-28T20:18:03.377Z,13.46
2023-04-28T20:20:52.451Z,13.45
2023-04-28T20:23:38.209Z,13.45
2023-04-28T20:26:23.263Z,13.44
2023-04-28T20:29:09.081Z,13.44
2023-04-28T20:31:55.180Z,13.46
2023-04-28T20:34:41.260Z,13.45
2023-04-28T20:37:26.628Z,13.38
2023-04-28T20:40:12.565Z,13.36
2023-04-28T20:42:58.744Z,13.33
2023-04-28T20:45:44.424Z,13.32
2023-04-28T20:48:29.994Z,13.31
2023-04-28T20:51:15.493Z,13.30
2023-04-28T20:54:01.538Z,13.23
2023-04-28T20:56:47.099Z,13.21
2023-04-28T20:59:33.048Z,13.21
2023-04-28T21:02:18.482Z,13.17
2023-04-28T21:05:04.031Z,13.17
2023-04-28T21:07:49.213Z,13.12
2023-04-28T21:10:34.316Z,13.07
2023-04-28T21:13:19.882Z,13.03
2023-04-28T21:16:05.639Z,13.03
2023-04-28T21:18:51.084Z,13.00
2023-04-28T21:21:37.476Z,13.00
2023-04-28T21:24:22.974Z,13.03
2023-04-28T21:27:09.020Z,13.04
2023-04-28T21:29:54.324Z,13.02
2023-04-28T21:32:42.543Z,13.01
2023-04-28T21:35:28.669Z,13.01
2023-04-28T21:38:14.413Z,13.02
2023-04-28T21:41:00.363Z,13.02
2023-04-28T21:43:45.912Z,13.02
2023-04-28T21:46:31.225Z,13.01
2023-04-28T21:49:16.440Z,13.00
2023-04-28T21:52:05.116Z,12.99
2023-04-28T21:54:50.863Z,13.00
2023-04-28T21:57:36.734Z,12.97
2023-04-28T22:00:23.843Z,12.95
2023-04-28T22:03:10.221Z,12.95
2023-04-28T22:05:56.499Z,12.93
2023-04-28T22:08:41.768Z,12.93
2023-04-28T22:11:28.100Z,12.94
2023-04-28T22:14:21.493Z,12.89
2023-04-28T22:17:18.792Z,12.87
2023-04-28T22:20:05.224Z,12.84
2023-04-28T22:22:51.390Z,12.86
2023-04-28T22:25:36.660Z,12.86
2023-04-28T22:28:22.597Z,12.86
2023-04-28T22:31:08.265Z,12.86
2023-04-28T22:33:53.699Z,12.85
2023-04-28T22:36:39.261Z,12.87
2023-04-28T22:39:25.174Z,12.83
2023-04-28T22:42:10.704Z,12.82
2023-04-28T22:44:55.783Z,12.84
2023-04-28T22:47:41.742Z,12.86
2023-04-28T22:50:28.861Z,12.88
2023-04-28T22:53:13.830Z,12.89
2023-04-28T22:56:02.830Z,12.90
2023-04-28T22:58:48.294Z,12.88
2023-04-28T23:01:33.982Z,12.88
2023-04-28T23:04:20.303Z,12.86
2023-04-28T23:07:06.990Z,12.83
2023-04-28T23:09:52.703Z,12.81
2023-04-28T23:12:38.292Z,12.83
2023-04-28T23:15:23.589Z,12.81
2023-04-28T23:18:09.052Z,12.81
2023-04-28T23:20:54.569Z,12.84
2023-04-28T23:23:40.103Z,12.82
2023-04-28T23:26:26.098Z,12.82
2023-04-28T23:29:11.474Z,12.78
2023-04-28T23:31:56.756Z,12.78
2023-04-28T23:34:42.647Z,12.78
2023-04-28T23:37:28.045Z,12.76
2023-04-28T23:40:13.781Z,12.74
2023-04-28T23:42:59.183Z,12.74
2023-04-28T23:45:44.429Z,12.70
2023-04-28T23:48:29.838Z,12.72
2023-04-28T23:51:15.056Z,12.72
2023-04-28T23:54:01.726Z,12.74
2023-04-28T23:56:47.246Z,12.74
2023-04-28T23:59:32.542Z,12.74
